Time;durP1;ratioP1;P1;durP2;ratioP2;P2;SDS_P1;SDS_P2;PMS_P1;PMS_P2;Temp;Humidity;BMP_temperature;BMP_pressure;BME280_temperature;BME280_humidity;BME280_pressure;Samples;Min_cycle;Max_cycle;Signal;HPM_P1;HPM_P2
2023/05/16 00:00:53;;;;;;;;;;;;;;;11.33;100.00;96175.16;5050067;28;19963;-66
2023/05/16 00:03:19;;;;;;;;;;;;;;;11.34;100.00;96176.75;4983458;28;19961;-66
2023/05/16 00:05:45;;;;;;;;;;;;;;;11.33;100.00;96175.94;4983431;28;19966;-67
2023/05/16 00:08:11;;;;;;;;;;;;;;;11.33;100.00;96169.91;4982748;28;20149;-67
2023/05/16 00:10:37;;;;;;;;;;;;;;;11.32;100.00;96173.56;4983548;28;19977;-67
2023/05/16 00:13:03;;;;;;;;;;;;;;;11.32;100.00;96165.69;4982880;28;19955;-66
2023/05/16 00:15:29;;;;;;;;;;;;;;;11.29;100.00;96171.38;4983486;28;20024;-68
2023/05/16 00:17:58;;;;;;;;;;;;;;;11.28;100.00;96169.81;4982858;28;19963;-66
2023/05/16 00:20:25;;;;;;;;;;;;;;;11.26;100.00;96167.41;4982850;28;19961;-70
2023/05/16 00:22:51;;;;;;;;;;;;;;;11.25;100.00;96162.38;4982951;28;19952;-72
2023/05/16 00:25:17;;;;;;;;;;;;;;;11.23;100.00;96161.78;4982911;28;19994;-67
2023/05/16 00:27:43;;;;;;;;;;;;;;;11.21;100.00;96167.28;4983178;28;19958;-67
2023/05/16 00:30:09;;;;;;;;;;;;;;;11.20;100.00;96168.31;4982921;28;20031;-67
2023/05/16 00:32:35;;;;;;;;;;;;;;;11.16;100.00;96161.91;4982801;28;20001;-67
2023/05/16 00:35:01;;;;;;;;;;;;;;;11.14;100.00;96158.72;4982210;28;19960;-67
2023/05/16 00:37:27;;;;;;;;;;;;;;;11.11;100.00;96165.22;4982904;28;19999;-67
2023/05/16 00:39:52;;;;;;;;;;;;;;;11.07;100.00;96158.03;4983022;28;20024;-71
2023/05/16 00:42:19;;;;;;;;;;;;;;;11.00;100.00;96154.72;5050076;28;19961;-73
2023/05/16 00:44:46;;;;;;;;;;;;;;;10.96;100.00;96149.13;4983062;28;20172;-73
2023/05/16 00:47:11;;;;;;;;;;;;;;;10.88;100.00;96147.66;4982458;28;19969;-73
2023/05/16 00:49:37;;;;;;;;;;;;;;;10.84;100.00;96148.34;5049587;28;20249;-73
2023/05/16 00:52:03;;;;;;;;;;;;;;;10.82;100.00;96150.38;4982556;28;19959;-73
2023/05/16 00:54:29;;;;;;;;;;;;;;;10.81;100.00;96154.81;4982459;28;19961;-73
2023/05/16 00:56:56;;;;;;;;;;;;;;;10.79;100.00;96156.84;4982819;28;20025;-73
2023/05/16 00:59:22;;;;;;;;;;;;;;;10.78;100.00;96152.66;4982630;28;20139;-71
2023/05/16 01:01:49;;;;;;;;;;;;;;;10.76;100.00;96150.25;4982598;28;19952;-70
2023/05/16 01:04:15;;;;;;;;;;;;;;;10.76;100.00;96146.81;4982596;28;19962;-70
2023/05/16 01:06:42;;;;;;;;;;;;;;;10.76;100.00;96146.81;4982555;28;19964;-70
2023/05/16 01:09:08;;;;;;;;;;;;;;;10.76;100.00;96149.44;4982856;28;19974;-70
2023/05/16 01:11:52;;;;;;;;;;;;;;;10.73;100.00;96152.50;4982143;28;19971;-69
2023/05/16 01:14:32;;;;;;;;;;;;;;;10.72;100.00;96148.31;4982120;28;20145;-70
2023/05/16 01:17:07;;;;;;;;;;;;;;;10.70;100.00;96153.75;4982247;28;20159;-73
2023/05/16 01:19:45;;;;;;;;;;;;;;;10.69;100.00;96154.00;4981882;28;19963;-79
2023/05/16 01:22:15;;;;;;;;;;;;;;;10.69;100.00;96146.16;5048983;28;19965;-76
2023/05/16 01:24:59;;;;;;;;;;;;;;;10.69;100.00;96143.53;4982345;28;20270;-76
2023/05/16 01:27:26;;;;;;;;;;;;;;;10.67;100.00;96151.59;4982600;28;19965;-76
2023/05/16 01:29:55;;;;;;;;;;;;;;;10.66;100.00;96157.06;4982044;28;19977;-75
2023/05/16 01:32:24;;;;;;;;;;;;;;;10.65;100.00;96156.28;4982463;28;19973;-75
2023/05/16 01:34:51;;;;;;;;;;;;;;;10.63;100.00;96154.91;4981999;28;19961;-75
2023/05/16 01:37:34;;;;;;;;;;;;;;;10.62;100.00;96167.19;4982140;28;19984;-72
2023/05/16 01:40:08;;;;;;;;;;;;;;;10.63;100.00;96154.91;4982265;28;19977;-72
2023/05/16 01:42:37;;;;;;;;;;;;;;;10.63;100.00;96163.56;4982237;28;19964;-73
2023/05/16 01:45:11;;;;;;;;;;;;;;;10.64;100.00;96164.38;4982905;28;19942;-75
2023/05/16 01:47:40;;;;;;;;;;;;;;;10.64;100.00;96159.13;4984957;28;19971;-74
2023/05/16 01:50:13;;;;;;;;;;;;;;;10.63;100.00;96160.94;4985035;28;19965;-73
2023/05/16 01:52:59;;;;;;;;;;;;;;;10.63;100.00;96160.94;4985560;28;19968;-79
2023/05/16 01:55:25;;;;;;;;;;;;;;;10.64;100.00;96153.88;4985103;28;19964;-73
2023/05/16 01:57:51;;;;;;;;;;;;;;;10.63;100.00;96160.94;4985212;28;20037;-73
2023/05/16 02:00:17;;;;;;;;;;;;;;;10.60;100.00;96163.22;4985222;28;19964;-73
2023/05/16 02:02:43;;;;;;;;;;;;;;;10.59;100.00;96162.41;5052446;28;20182;-73
2023/05/16 02:05:09;;;;;;;;;;;;;;;10.59;100.00;96166.88;4985155;28;19952;-73
2023/05/16 02:07:35;;;;;;;;;;;;;;;10.59;100.00;96157.19;4985452;28;20133;-72
2023/05/16 02:10:00;;;;;;;;;;;;;;;10.58;100.00;96155.56;4984756;28;20173;-72
2023/05/16 02:12:26;;;;;;;;;;;;;;;10.55;100.00;96162.06;4985132;28;20142;-70
2023/05/16 02:14:52;;;;;;;;;;;;;;;10.54;100.00;96159.66;4984836;28;19972;-85
2023/05/16 02:17:18;;;;;;;;;;;;;;;10.51;100.00;96160.91;4984394;28;20266;-84
2023/05/16 02:19:44;;;;;;;;;;;;;;;10.47;100.00;96170.25;4984779;28;20194;-85
2023/05/16 02:22:10;;;;;;;;;;;;;;;10.46;100.00;96166.03;4984954;28;19964;-91
2023/05/16 02:24:36;;;;;;;;;;;;;;;10.44;100.00;96177.78;4984829;28;20230;-79
2023/05/16 02:27:02;;;;;;;;;;;;;;;10.42;100.00;96178.00;4985056;28;19960;-84
2023/05/16 02:29:28;;;;;;;;;;;;;;;10.39;100.00;96172.38;4984779;28;19962;-72
2023/05/16 02:31:54;;;;;;;;;;;;;;;10.37;100.00;96177.84;4984810;28;20138;-72
2023/05/16 02:34:20;;;;;;;;;;;;;;;10.35;100.00;96172.84;4984974;28;19969;-82
2023/05/16 02:36:46;;;;;;;;;;;;;;;10.34;100.00;96171.22;4984661;28;20008;-83
2023/05/16 02:39:12;;;;;;;;;;;;;;;10.33;100.00;96171.44;4984932;28;19958;-87
2023/05/16 02:41:38;;;;;;;;;;;;;;;10.30;100.00;96167.44;4984506;28;19954;-85
2023/05/16 02:44:03;;;;;;;;;;;;;;;10.28;100.00;96164.22;4984884;28;19979;-90
2023/05/16 02:46:30;;;;;;;;;;;;;;;10.28;100.00;96166.84;4984078;28;20186;-84
2023/05/16 02:48:56;;;;;;;;;;;;;;;10.27;100.00;96165.25;4984709;28;19961;-81
2023/05/16 02:51:23;;;;;;;;;;;;;;;10.25;100.00;96169.94;4984651;28;19959;-88
2023/05/16 02:53:49;;;;;;;;;;;;;;;10.27;100.00;96164.47;4984500;28;19962;-84
2023/05/16 02:56:15;;;;;;;;;;;;;;;10.28;100.00;96168.69;4983594;28;19971;-87
2023/05/16 02:58:41;;;;;;;;;;;;;;;10.28;100.00;96160.81;4984799;28;20129;-86
2023/05/16 03:01:07;;;;;;;;;;;;;;;10.27;100.00;96161.84;4984808;28;19961;-89
2023/05/16 03:03:34;;;;;;;;;;;;;;;10.28;100.00;96163.44;5052272;28;19961;-86
2023/05/16 03:06:00;;;;;;;;;;;;;;;10.25;100.00;96158.66;4984508;28;20150;-71
2023/05/16 03:08:26;;;;;;;;;;;;;;;10.23;100.00;96164.09;4983788;28;19967;-69
2023/05/16 03:10:52;;;;;;;;;;;;;;;10.22;100.00;96156.47;4984272;28;19957;-68
2023/05/16 03:13:18;;;;;;;;;;;;;;;10.21;100.00;96157.50;4983803;28;19963;-68
2023/05/16 03:15:44;;;;;;;;;;;;;;;10.19;100.00;96165.56;4983577;28;19968;-68
2023/05/16 03:18:10;;;;;;;;;;;;;;;10.18;100.00;96161.34;4983857;28;20136;-68
2023/05/16 03:20:39;;;;;;;;;;;;;;;10.18;100.00;96157.91;4983807;28;19954;-68
2023/05/16 03:23:07;;;;;;;;;;;;;;;10.18;100.00;96157.91;4984026;28;19962;-68
2023/05/16 03:25:33;;;;;;;;;;;;;;;10.17;100.00;96159.75;4983883;28;19950;-73
2023/05/16 03:27:59;;;;;;;;;;;;;;;10.19;100.00;96156.91;4983869;28;19962;-84
2023/05/16 03:30:25;;;;;;;;;;;;;;;10.20;100.00;96161.13;4983944;28;19976;-87
2023/05/16 03:32:51;;;;;;;;;;;;;;;10.19;100.00;96157.72;4983878;28;20231;-79
2023/05/16 03:35:17;;;;;;;;;;;;;;;10.18;100.00;96161.34;4983200;28;20028;-82
2023/05/16 03:37:43;;;;;;;;;;;;;;;10.16;100.00;96155.50;4984107;28;19965;-83
2023/05/16 03:40:10;;;;;;;;;;;;;;;10.13;100.00;96166.44;4983379;28;19952;-83
2023/05/16 03:42:35;;;;;;;;;;;;;;;10.10;100.00;96166.88;4983874;28;20255;-93
2023/05/16 03:45:03;;;;;;;;;;;;;;;10.10;100.00;96162.47;4983350;28;19954;-74
2023/05/16 03:47:30;;;;;;;;;;;;;;;10.11;100.00;96173.72;5054322;28;19967;-91
2023/05/16 03:49:56;;;;;;;;;;;;;;;10.09;100.00;96166.09;5058056;28;19977;-96
2023/05/16 03:52:22;;;;;;;;;;;;;;;10.11;100.00;96169.28;4989837;28;19970;-96
2023/05/16 03:54:48;;;;;;;;;;;;;;;10.11;100.00;96166.66;4988253;28;20166;-94
2023/05/16 03:57:14;;;;;;;;;;;;;;;10.12;100.00;96165.66;4987123;28;19985;-94
2023/05/16 03:59:40;;;;;;;;;;;;;;;10.12;100.00;96165.66;4988314;28;20026;-95
2023/05/16 04:02:05;;;;;;;;;;;;;;;10.13;100.00;96172.47;4985441;28;20303;-74
2023/05/16 04:04:31;;;;;;;;;;;;;;;10.13;100.00;96176.94;4982822;28;20137;-69
2023/05/16 04:06:57;;;;;;;;;;;;;;;10.15;100.00;96170.44;4982918;28;19958;-69
2023/05/16 04:09:23;;;;;;;;;;;;;;;10.16;100.00;96172.06;4982967;28;20294;-69
2023/05/16 04:11:49;;;;;;;;;;;;;;;10.18;100.00;96173.66;4982713;28;20266;-69
2023/05/16 04:14:15;;;;;;;;;;;;;;;10.18;100.00;96173.66;4983239;28;19955;-70
2023/05/16 04:16:40;;;;;;;;;;;;;;;10.19;100.00;96172.63;4982121;28;19977;-69
2023/05/16 04:19:06;;;;;;;;;;;;;;;10.20;100.00;96175.00;4982275;28;19955;-68
2023/05/16 04:21:32;;;;;;;;;;;;;;;10.24;100.00;96173.56;4983075;28;19964;-70
2023/05/16 04:23:58;;;;;;;;;;;;;;;10.25;100.00;96169.94;4983183;28;19965;-69
2023/05/16 04:26:26;;;;;;;;;;;;;;;10.27;100.00;96185.44;4982544;28;19992;-69
2023/05/16 04:28:52;;;;;;;;;;;;;;;10.24;100.00;96185.88;4982454;28;19967;-69
2023/05/16 04:31:18;;;;;;;;;;;;;;;10.25;100.00;96183.03;4982435;28;19960;-69
2023/05/16 04:33:44;;;;;;;;;;;;;;;10.28;100.00;96187.81;4982261;28;20028;-70
2023/05/16 04:36:11;;;;;;;;;;;;;;;10.30;100.00;96187.63;4982928;28;19967;-70
2023/05/16 04:38:37;;;;;;;;;;;;;;;10.29;100.00;96183.38;4982535;28;19961;-69
2023/05/16 04:41:02;;;;;;;;;;;;;;;10.30;100.00;96177.16;4982565;28;19956;-73
2023/05/16 04:43:29;;;;;;;;;;;;;;;10.30;100.00;96183.19;4982853;28;19967;-73
2023/05/16 04:45:57;;;;;;;;;;;;;;;10.32;100.00;96193.44;4982094;28;19960;-73
2023/05/16 04:48:23;;;;;;;;;;;;;;;10.32;100.00;96183.75;4981803;28;19970;-73
2023/05/16 04:50:49;;;;;;;;;;;;;;;10.34;100.00;96192.19;4982166;28;19956;-73
2023/05/16 04:53:15;;;;;;;;;;;;;;;10.32;100.00;96191.63;4981898;28;20078;-73
2023/05/16 04:55:41;;;;;;;;;;;;;;;10.30;100.00;96198.91;4981930;28;19960;-74
2023/05/16 04:58:07;;;;;;;;;;;;;;;10.31;100.00;96197.06;4982656;28;19961;-70
2023/05/16 05:00:33;;;;;;;;;;;;;;;10.32;100.00;96199.47;4982115;28;19962;-69
2023/05/16 05:02:59;;;;;;;;;;;;;;;10.30;100.00;96196.28;4981867;28;20265;-70
2023/05/16 05:05:24;;;;;;;;;;;;;;;10.30;100.00;96206.78;4981438;28;19958;-70
2023/05/16 05:07:51;;;;;;;;;;;;;;;10.30;100.00;96206.78;4981926;28;19958;-70
2023/05/16 05:10:17;;;;;;;;;;;;;;;10.30;100.00;96200.72;4981914;28;19954;-70
2023/05/16 05:12:43;;;;;;;;;;;;;;;10.31;100.00;96213.63;4982002;28;19967;-69
2023/05/16 05:15:09;;;;;;;;;;;;;;;10.32;100.00;96204.72;4981706;28;19964;-73
2023/05/16 05:17:36;;;;;;;;;;;;;;;10.33;100.00;96210.75;4981867;28;20138;-70
2023/05/16 05:20:05;;;;;;;;;;;;;;;10.34;100.00;96213.16;4982919;28;19963;-69
2023/05/16 05:22:31;;;;;;;;;;;;;;;10.32;100.00;96212.59;4985583;28;19960;-70
2023/05/16 05:24:57;;;;;;;;;;;;;;;10.32;100.00;96203.94;4985696;28;19968;-69
2023/05/16 05:27:24;;;;;;;;;;;;;;;10.30;100.00;96211.22;4985453;28;19956;-70
2023/05/16 05:29:50;;;;;;;;;;;;;;;10.31;100.00;96223.28;4985052;28;19965;-70
2023/05/16 05:32:16;;;;;;;;;;;;;;;10.30;100.00;96216.47;4984923;28;20001;-69
2023/05/16 05:34:42;;;;;;;;;;;;;;;10.29;100.00;96220.91;4984941;28;20002;-71
2023/05/16 05:37:08;;;;;;;;;;;;;;;10.29;100.00;96223.53;4985492;28;19980;-70
2023/05/16 05:39:34;;;;;;;;;;;;;;;10.29;100.00;96215.66;4984481;28;19956;-71
2023/05/16 05:42:02;;;;;;;;;;;;;;;10.29;100.00;96223.53;4984867;28;19960;-70
2023/05/16 05:44:28;;;;;;;;;;;;;;;10.29;100.00;96220.91;4985212;28;19957;-70
2023/05/16 05:46:56;;;;;;;;;;;;;;;10.28;100.00;96224.50;4984897;28;19961;-70
2023/05/16 05:49:25;;;;;;;;;;;;;;;10.27;100.00;96222.91;4984535;28;19966;-71
2023/05/16 05:51:51;;;;;;;;;;;;;;;10.27;100.00;96224.75;4984808;28;19976;-72
2023/05/16 05:54:20;;;;;;;;;;;;;;;10.28;100.00;96223.72;4984664;28;20031;-72
2023/05/16 05:56:46;;;;;;;;;;;;;;;10.31;100.00;96229.34;4984824;28;19965;-69
2023/05/16 05:59:12;;;;;;;;;;;;;;;10.31;100.00;96234.59;4985088;28;19964;-69
2023/05/16 06:01:38;;;;;;;;;;;;;;;10.33;100.00;96231.72;4983929;28;19943;-69
2023/05/16 06:04:04;;;;;;;;;;;;;;;10.36;100.00;96234.72;4984562;28;19966;-69
2023/05/16 06:06:30;;;;;;;;;;;;;;;10.37;100.00;96230.25;4984027;28;19967;-70
2023/05/16 06:08:57;;;;;;;;;;;;;;;10.36;100.00;96237.34;4984371;28;20108;-69
2023/05/16 06:11:24;;;;;;;;;;;;;;;10.38;100.00;96234.50;4984235;28;20236;-70
2023/05/16 06:13:52;;;;;;;;;;;;;;;10.38;100.00;96246.81;4984264;28;19958;-69
2023/05/16 06:16:19;;;;;;;;;;;;;;;10.37;100.00;96238.13;4984254;28;19981;-69
2023/05/16 06:18:45;;;;;;;;;;;;;;;10.34;100.00;96249.06;4983971;28;19962;-69
2023/05/16 06:21:10;;;;;;;;;;;;;;;10.34;100.00;96246.44;4984173;28;20220;-69
2023/05/16 06:23:36;;;;;;;;;;;;;;;10.33;100.00;96250.91;4983906;28;19960;-69
2023/05/16 06:26:03;;;;;;;;;;;;;;;10.34;100.00;96251.69;4984017;28;19967;-70
2023/05/16 06:28:28;;;;;;;;;;;;;;;10.33;100.00;96244.84;4983809;28;20132;-73
2023/05/16 06:30:54;;;;;;;;;;;;;;;10.34;100.00;96260.34;4983209;28;20007;-69
2023/05/16 06:33:20;;;;;;;;;;;;;;;10.37;100.00;96259.09;4983396;28;19975;-89
2023/05/16 06:35:47;;;;;;;;;;;;;;;10.34;100.00;96249.88;4984112;28;19978;-93
2023/05/16 06:38:14;;;;;;;;;;;;;;;10.34;100.00;96260.34;4984594;28;19959;-90
2023/05/16 06:40:40;;;;;;;;;;;;;;;10.32;100.00;96262.38;4984074;28;19956;-84
2023/05/16 06:43:05;;;;;;;;;;;;;;;10.31;100.00;96263.44;4984437;28;20049;-93
2023/05/16 06:45:31;;;;;;;;;;;;;;;10.29;100.00;96269.84;4985951;28;19959;-94
2023/05/16 06:47:57;;;;;;;;;;;;;;;10.28;100.00;96268.28;4984111;28;20000;-69
2023/05/16 06:50:23;;;;;;;;;;;;;;;10.23;100.00;96271.56;4983577;28;19954;-75
2023/05/16 06:52:49;;;;;;;;;;;;;;;10.22;100.00;96277.78;4983510;28;19968;-74
2023/05/16 06:55:15;;;;;;;;;;;;;;;10.21;100.00;96278.84;4983508;28;19963;-75
2023/05/16 06:57:41;;;;;;;;;;;;;;;10.22;100.00;96271.75;4983400;28;19965;-74
2023/05/16 07:00:07;;;;;;;;;;;;;;;10.29;100.00;96272.47;4983029;28;19944;-74
2023/05/16 07:02:33;;;;;;;;;;;;;;;10.40;100.00;96277.03;4983147;28;19956;-75
2023/05/16 07:04:59;;;;;;;;;;;;;;;10.42;100.00;96274.97;4983173;28;20093;-69
2023/05/16 07:07:25;;;;;;;;;;;;;;;10.50;100.00;96273.88;4983197;28;20134;-73
2023/05/16 07:09:51;;;;;;;;;;;;;;;10.57;100.00;96266.72;4983354;28;19956;-71
2023/05/16 07:12:17;;;;;;;;;;;;;;;10.54;100.00;96277.63;4983105;28;19968;-71
2023/05/16 07:14:43;;;;;;;;;;;;;;;10.46;100.00;96278.75;4983025;28;19964;-71
2023/05/16 07:17:09;;;;;;;;;;;;;;;10.41;100.00;96281.22;5049767;28;19971;-70
2023/05/16 07:19:35;;;;;;;;;;;;;;;10.34;100.00;96277.91;4982925;28;19974;-70
2023/05/16 07:22:00;;;;;;;;;;;;;;;10.31;100.00;96276.53;4983041;28;20256;-71
2023/05/16 07:24:26;;;;;;;;;;;;;;;10.33;100.00;96286.78;4983149;28;19968;-69
2023/05/16 07:26:52;;;;;;;;;;;;;;;10.29;100.00;96280.34;4983094;28;19966;-72
2023/05/16 07:29:18;;;;;;;;;;;;;;;10.28;100.00;96289.22;4983654;28;19956;-70
2023/05/16 07:31:44;;;;;;;;;;;;;;;10.25;100.00;96292.31;4984149;28;19948;-69
2023/05/16 07:34:10;;;;;;;;;;;;;;;10.20;100.00;96292.94;4983484;28;20034;-69
2023/05/16 07:36:37;;;;;;;;;;;;;;;10.14;100.00;96296.44;4983925;28;20256;-69
2023/05/16 07:39:03;;;;;;;;;;;;;;;10.10;100.00;96292.66;4983942;28;19965;-70
2023/05/16 07:41:29;;;;;;;;;;;;;;;10.10;100.00;96292.66;4983398;28;19973;-70
2023/05/16 07:43:55;;;;;;;;;;;;;;;10.10;100.00;96290.84;4983000;28;19966;-84
2023/05/16 07:46:21;;;;;;;;;;;;;;;10.08;100.00;96295.50;4983458;28;19967;-71
2023/05/16 07:48:47;;;;;;;;;;;;;;;10.08;100.00;96302.53;4983572;28;19967;-71
2023/05/16 07:51:13;;;;;;;;;;;;;;;10.05;100.00;96298.53;4983514;28;19958;-71
2023/05/16 07:53:40;;;;;;;;;;;;;;;10.02;100.00;96299.00;5050140;28;19971;-71
2023/05/16 07:56:06;;;;;;;;;;;;;;;10.04;100.00;96302.19;4983274;28;19968;-70
2023/05/16 07:58:31;;;;;;;;;;;;;;;10.03;100.00;96295.34;4983198;28;20156;-72
2023/05/16 08:00:57;;;;;;;;;;;;;;;10.03;100.00;96292.72;5050549;28;20020;-70
2023/05/16 08:03:23;;;;;;;;;;;;;;;10.05;100.00;96300.38;4983094;28;20000;-73
2023/05/16 08:05:50;;;;;;;;;;;;;;;10.03;100.00;96297.16;4983537;28;19958;-73
2023/05/16 08:08:16;;;;;;;;;;;;;;;10.04;100.00;96296.16;4983156;28;19956;-74
2023/05/16 08:10:42;;;;;;;;;;;;;;;10.05;100.00;96300.38;4982780;28;20114;-73
2023/05/16 08:13:08;;;;;;;;;;;;;;;10.04;100.00;96304.03;4983041;28;20031;-73
2023/05/16 08:15:34;;;;;;;;;;;;;;;10.02;100.00;96301.63;4982980;28;19957;-73
2023/05/16 08:18:00;;;;;;;;;;;;;;;10.03;100.00;96305.03;4982876;28;19971;-73
2023/05/16 08:20:26;;;;;;;;;;;;;;;10.07;100.00;96306.19;4983147;28;19990;-72
2023/05/16 08:22:53;;;;;;;;;;;;;;;10.10;100.00;96311.81;4983029;28;19970;-69
2023/05/16 08:25:19;;;;;;;;;;;;;;;10.13;100.00;96310.56;4983050;28;19960;-70
2023/05/16 08:27:45;;;;;;;;;;;;;;;10.16;100.00;96318.81;4982925;28;19965;-70
2023/05/16 08:30:11;;;;;;;;;;;;;;;10.21;100.00;96309.50;4983205;28;19948;-70
2023/05/16 08:32:38;;;;;;;;;;;;;;;10.23;100.00;96303.00;4982718;28;19964;-70
2023/05/16 08:35:04;;;;;;;;;;;;;;;10.23;100.00;96310.88;4982592;28;19967;-69
2023/05/16 08:37:30;;;;;;;;;;;;;;;10.21;100.00;96312.91;4982518;28;19963;-73
2023/05/16 08:39:57;;;;;;;;;;;;;;;10.22;100.00;96313.69;5049459;28;20021;-71
2023/05/16 08:42:23;;;;;;;;;;;;;;;10.21;100.00;96320.75;4982569;28;19961;-73
2023/05/16 08:44:49;;;;;;;;;;;;;;;10.25;100.00;96316.69;4982616;28;19990;-73
2023/05/16 08:47:20;;;;;;;;;;;;;;;10.32;100.00;96320.06;4982585;28;20252;-73
2023/05/16 08:49:50;;;;;;;;;;;;;;;10.41;100.00;96323.19;4982803;28;19955;-73
2023/05/16 08:52:20;;;;;;;;;;;;;;;10.46;100.00;96323.34;4982735;28;19986;-73
2023/05/16 08:54:46;;;;;;;;;;;;;;;10.47;100.00;96322.31;4981861;28;19967;-73
2023/05/16 08:57:12;;;;;;;;;;;;;;;10.44;100.00;96325.38;4982799;28;19970;-69
2023/05/16 08:59:39;;;;;;;;;;;;;;;10.41;100.00;96335.50;4982235;28;19992;-71
2023/05/16 09:02:05;;;;;;;;;;;;;;;10.37;100.00;96340.34;4982269;28;19954;-71
2023/05/16 09:04:31;;;;;;;;;;;;;;;10.33;100.00;96342.63;4982605;28;20318;-71
2023/05/16 09:06:57;;;;;;;;;;;;;;;10.33;100.00;96339.19;4982815;28;19960;-72
2023/05/16 09:09:23;;;;;;;;;;;;;;;10.36;100.00;96341.41;4982176;28;19968;-71
2023/05/16 09:11:49;;;;;;;;;;;;;;;10.36;100.00;96339.56;4982225;28;20021;-71
2023/05/16 09:14:15;;;;;;;;;;;;;;;10.38;100.00;96341.97;4982341;28;19983;-70
2023/05/16 09:16:41;;;;;;;;;;;;;;;10.38;100.00;96341.97;4982245;28;19969;-73
2023/05/16 09:19:11;;;;;;;;;;;;;;;10.37;100.00;96342.97;4981541;28;20181;-69
2023/05/16 09:21:38;;;;;;;;;;;;;;;10.36;100.00;96338.78;4982393;28;19968;-70
2023/05/16 09:24:05;;;;;;;;;;;;;;;10.33;100.00;96337.41;4982348;28;19961;-70
2023/05/16 09:26:32;;;;;;;;;;;;;;;10.34;100.00;96340.81;4982137;28;20229;-69
2023/05/16 09:28:57;;;;;;;;;;;;;;;10.38;100.00;96335.94;4981629;28;19968;-69
2023/05/16 09:31:29;;;;;;;;;;;;;;;10.37;100.00;96335.13;4981720;28;19963;-70
2023/05/16 09:33:55;;;;;;;;;;;;;;;10.36;100.00;96331.69;4982317;28;19961;-74
2023/05/16 09:36:21;;;;;;;;;;;;;;;10.38;100.00;96325.47;4981689;28;19968;-73
2023/05/16 09:38:48;;;;;;;;;;;;;;;10.42;100.00;96324.00;4982041;28;19980;-73
2023/05/16 09:41:14;;;;;;;;;;;;;;;10.47;100.00;96339.84;4982024;28;19959;-73
2023/05/16 09:43:41;;;;;;;;;;;;;;;10.49;100.00;96338.63;4982022;28;19962;-73
2023/05/16 09:46:13;;;;;;;;;;;;;;;10.53;100.00;96336.38;4981572;28;20359;-73
2023/05/16 09:48:46;;;;;;;;;;;;;;;10.55;100.00;96342.97;4982107;28;19981;-72
2023/05/16 09:51:12;;;;;;;;;;;;;;;10.62;100.00;96340.28;4981784;28;20270;-70
2023/05/16 09:53:38;;;;;;;;;;;;;;;10.72;100.00;96339.75;4981596;28;19964;-82
2023/05/16 09:56:06;;;;;;;;;;;;;;;10.83;100.00;96327.72;4981669;28;19955;-69
2023/05/16 09:58:36;;;;;;;;;;;;;;;10.99;100.00;96315.81;4981945;28;19961;-69
2023/05/16 10:01:03;;;;;;;;;;;;;;;11.07;100.00;96320.75;4981682;28;19956;-69
2023/05/16 10:03:29;;;;;;;;;;;;;;;11.11;100.00;96309.56;4981663;28;19969;-70
2023/05/16 10:05:55;;;;;;;;;;;;;;;11.13;100.00;96315.41;4982595;28;20088;-69
2023/05/16 10:08:22;;;;;;;;;;;;;;;11.09;100.00;96309.00;4984815;28;19967;-69
2023/05/16 10:10:52;;;;;;;;;;;;;;;11.08;100.00;96314.47;4985074;28;19988;-70
2023/05/16 10:13:22;;;;;;;;;;;;;;;11.04;100.00;96316.72;4984872;28;20281;-73
2023/05/16 10:15:49;;;;;;;;;;;;;;;11.06;100.00;96327.78;4984849;28;19957;-73
2023/05/16 10:18:17;;;;;;;;;;;;;;;11.10;100.00;96318.44;4984379;28;19993;-73
2023/05/16 10:20:44;;;;;;;;;;;;;;;11.14;100.00;96321.44;4985234;28;20261;-73
2023/05/16 10:23:13;;;;;;;;;;;;;;;11.18;100.00;96320.75;4985174;28;19966;-73
2023/05/16 10:25:40;;;;;;;;;;;;;;;11.20;100.00;96325.00;4984429;28;19959;-73
2023/05/16 10:28:07;;;;;;;;;;;;;;;11.13;100.00;96317.22;4984411;28;19966;-69
2023/05/16 10:30:34;;;;;;;;;;;;;;;11.09;100.00;96326.56;4984496;28;19959;-70
2023/05/16 10:33:03;;;;;;;;;;;;;;;11.08;100.00;96323.13;4984412;28;19963;-69
2023/05/16 10:35:29;;;;;;;;;;;;;;;11.11;100.00;96333.19;4984440;28;19975;-70
2023/05/16 10:37:56;;;;;;;;;;;;;;;11.15;100.00;96331.72;4984400;28;20015;-69
2023/05/16 10:40:23;;;;;;;;;;;;;;;11.20;100.00;96332.88;4984467;28;19961;-69
2023/05/16 10:42:56;;;;;;;;;;;;;;;11.24;100.00;96328.78;4984402;28;19958;-70
2023/05/16 10:45:22;;;;;;;;;;;;;;;11.29;100.00;96328.91;4984132;28;20274;-69
2023/05/16 10:47:52;;;;;;;;;;;;;;;11.34;100.00;96319.31;4984702;28;19967;-69
2023/05/16 10:50:37;;;;;;;;;;;;;;;11.41;100.00;96323.69;4984087;28;20146;-70
2023/05/16 10:53:16;;;;;;;;;;;;;;;11.48;100.00;96321.72;4984140;28;19965;-69
2023/05/16 10:55:44;;;;;;;;;;;;;;;11.56;100.00;96324.81;4984144;28;19964;-69
2023/05/16 10:58:10;;;;;;;;;;;;;;;11.65;100.00;96321.88;4984139;28;19971;-69
2023/05/16 11:00:38;;;;;;;;;;;;;;;11.58;100.00;96322.78;4984126;28;19964;-70
2023/05/16 11:03:04;;;;;;;;;;;;;;;11.52;100.00;96328.94;5050844;28;20216;-70
2023/05/16 11:05:30;;;;;;;;;;;;;;;11.51;100.00;96337.06;4984455;28;19959;-70
2023/05/16 11:08:04;;;;;;;;;;;;;;;11.51;100.00;96331.81;4984195;28;19990;-69
2023/05/16 11:10:30;;;;;;;;;;;;;;;11.52;100.00;96336.81;4983760;28;19976;-70
2023/05/16 11:13:01;;;;;;;;;;;;;;;11.61;100.00;96336.47;4983631;28;20198;-69
2023/05/16 11:15:27;;;;;;;;;;;;;;;11.65;100.00;96350.75;4984286;28;19954;-70
2023/05/16 11:18:05;;;;;;;;;;;;;;;11.60;100.00;96350.66;4982969;28;20156;-70
2023/05/16 11:20:33;;;;;;;;;;;;;;;11.48;100.00;96359.28;4983867;28;20139;-69
2023/05/16 11:23:17;;;;;;;;;;;;;;;11.38;100.00;96346.72;5050363;28;19958;-70
2023/05/16 11:25:44;;;;;;;;;;;;;;;11.26;100.00;96352.97;4983294;28;20144;-73
2023/05/16 11:28:11;;;;;;;;;;;;;;;11.15;100.00;96362.44;4983962;28;19957;-73
2023/05/16 11:30:40;;;;;;;;;;;;;;;11.07;100.00;96363.53;4983862;28;19968;-74
2023/05/16 11:33:06;;;;;;;;;;;;;;;11.04;100.00;96363.97;4983511;28;19973;-73
2023/05/16 11:35:32;;;;;;;;;;;;;;;11.07;100.00;96365.34;4983590;28;19999;-73
2023/05/16 11:37:58;;;;;;;;;;;;;;;11.07;100.00;96360.91;4983493;28;20168;-73
2023/05/16 11:40:25;;;;;;;;;;;;;;;11.04;100.00;96363.16;4983846;28;20007;-74
2023/05/16 11:42:51;;;;;;;;;;;;;;;11.03;100.00;96370.25;4983382;28;19963;-84
2023/05/16 11:45:18;;;;;;;;;;;;;;;10.97;100.00;96365.88;4982830;28;19970;-70
2023/05/16 11:47:48;;;;;;;;;;;;;;;11.00;100.00;96375.13;4983372;28;19985;-69
2023/05/16 11:50:18;;;;;;;;;;;;;;;11.06;100.00;96371.63;4983350;28;19976;-69
2023/05/16 11:52:45;;;;;;;;;;;;;;;11.12;100.00;96362.84;4983633;28;20125;-69
2023/05/16 11:55:11;;;;;;;;;;;;;;;11.12;100.00;96371.53;4983407;28;19960;-69
2023/05/16 11:57:38;;;;;;;;;;;;;;;11.12;100.00;96370.72;4982669;28;20167;-71
2023/05/16 12:00:18;;;;;;;;;;;;;;;11.12;100.00;96368.09;4983075;28;20172;-70
2023/05/16 12:02:44;;;;;;;;;;;;;;;11.14;100.00;96368.69;4983450;28;20129;-72
2023/05/16 12:05:10;;;;;;;;;;;;;;;11.17;100.00;96370.84;4983132;28;19968;-72
2023/05/16 12:07:36;;;;;;;;;;;;;;;11.18;100.00;96368.00;4982951;28;19955;-72
2023/05/16 12:10:09;;;;;;;;;;;;;;;11.18;100.00;96378.50;4983309;28;19980;-72
2023/05/16 12:12:36;;;;;;;;;;;;;;;11.21;100.00;96379.09;4983386;28;19954;-71
2023/05/16 12:15:03;;;;;;;;;;;;;;;11.27;100.00;96375.56;4982483;28;19970;-72
2023/05/16 12:17:29;;;;;;;;;;;;;;;11.31;100.00;96376.72;4982441;28;20256;-72
2023/05/16 12:19:55;;;;;;;;;;;;;;;11.32;100.00;96370.47;4982830;28;19974;-71
2023/05/16 12:22:22;;;;;;;;;;;;;;;11.31;100.00;96377.50;4983345;28;19963;-70
2023/05/16 12:24:47;;;;;;;;;;;;;;;11.27;100.00;96381.63;4983074;28;20241;-69
2023/05/16 12:27:20;;;;;;;;;;;;;;;11.25;100.00;96375.00;4982561;28;20023;-69
2023/05/16 12:29:46;;;;;;;;;;;;;;;11.17;100.00;96382.16;4981445;28;19959;-70
2023/05/16 12:32:12;;;;;;;;;;;;;;;11.08;100.00;96383.50;4982974;28;19961;-69
2023/05/16 12:34:38;;;;;;;;;;;;;;;10.95;100.00;96387.09;4982779;28;19968;-69